sensor_id;sensor_type;location;lat;lon;timestamp;temperature;humidity
35613;DHT22;22054;51.646;7.078;2023-05-07T00:03:25;14.60;99.90
35613;DHT22;22054;51.646;7.078;2023-05-07T00:06:49;14.60;99.90
35613;DHT22;22054;51.646;7.078;2023-05-07T00:10:13;14.70;99.90
35613;DHT22;22054;51.646;7.078;2023-05-07T00:13:37;14.60;99.90
35613;DHT22;22054;51.646;7.078;2023-05-07T00:17:01;14.70;99.90
35613;DHT22;22054;51.646;7.078;2023-05-07T00:20:26;14.70;99.90
35613;DHT22;22054;51.646;7.078;2023-05-07T00:23:53;14.70;99.90
35613;DHT22;22054;51.646;7.078;2023-05-07T00:27:18;14.90;99.90
35613;DHT22;22054;51.646;7.078;2023-05-07T00:30:42;14.70;99.90
35613;DHT22;22054;51.646;7.078;2023-05-07T00:34:06;14.70;99.90
35613;DHT22;22054;51.646;7.078;2023-05-07T00:37:31;14.60;99.90
35613;DHT22;22054;51.646;7.078;2023-05-07T00:40:55;14.50;99.90
35613;DHT22;22054;51.646;7.078;2023-05-07T00:44:19;14.60;99.90
35613;DHT22;22054;51.646;7.078;2023-05-07T00:47:44;14.60;99.90
35613;DHT22;22054;51.646;7.078;2023-05-07T00:51:09;14.60;99.90
35613;DHT22;22054;51.646;7.078;2023-05-07T00:54:40;14.50;99.90
35613;DHT22;22054;51.646;7.078;2023-05-07T00:58:05;14.60;99.90
35613;DHT22;22054;51.646;7.078;2023-05-07T01:01:30;14.50;99.90
35613;DHT22;22054;51.646;7.078;2023-05-07T01:04:55;14.50;99.90
35613;DHT22;22054;51.646;7.078;2023-05-07T01:08:20;14.50;99.90
35613;DHT22;22054;51.646;7.078;2023-05-07T01:11:47;14.50;99.90
35613;DHT22;22054;51.646;7.078;2023-05-07T01:15:13;14.40;99.90
35613;DHT22;22054;51.646;7.078;2023-05-07T01:18:37;14.30;99.90
35613;DHT22;22054;51.646;7.078;2023-05-07T01:22:06;14.30;99.90
35613;DHT22;22054;51.646;7.078;2023-05-07T01:25:31;14.40;99.90
35613;DHT22;22054;51.646;7.078;2023-05-07T01:28:55;14.30;99.90
35613;DHT22;22054;51.646;7.078;2023-05-07T01:32:27;14.40;99.90
35613;DHT22;22054;51.646;7.078;2023-05-07T01:35:53;14.30;99.90
35613;DHT22;22054;51.646;7.078;2023-05-07T01:39:18;14.30;99.90
35613;DHT22;22054;51.646;7.078;2023-05-07T01:42:46;14.60;99.90
35613;DHT22;22054;51.646;7.078;2023-05-07T01:46:11;14.30;99.90
35613;DHT22;22054;51.646;7.078;2023-05-07T01:49:35;14.30;99.90
35613;DHT22;22054;51.646;7.078;2023-05-07T01:53:01;14.30;99.90
35613;DHT22;22054;51.646;7.078;2023-05-07T01:56:25;14.40;99.90
35613;DHT22;22054;51.646;7.078;2023-05-07T01:59:50;14.40;99.90
35613;DHT22;22054;51.646;7.078;2023-05-07T02:03:14;14.30;99.90
35613;DHT22;22054;51.646;7.078;2023-05-07T02:06:38;14.30;99.90
35613;DHT22;22054;51.646;7.078;2023-05-07T02:10:02;14.50;99.90
35613;DHT22;22054;51.646;7.078;2023-05-07T02:13:29;14.40;99.90
35613;DHT22;22054;51.646;7.078;2023-05-07T02:16:54;14.40;99.90
35613;DHT22;22054;51.646;7.078;2023-05-07T02:20:25;14.40;99.90
35613;DHT22;22054;51.646;7.078;2023-05-07T02:23:50;14.40;99.90
35613;DHT22;22054;51.646;7.078;2023-05-07T02:27:14;14.50;99.90
35613;DHT22;22054;51.646;7.078;2023-05-07T02:30:39;14.40;99.90
35613;DHT22;22054;51.646;7.078;2023-05-07T02:34:03;14.40;99.90
35613;DHT22;22054;51.646;7.078;2023-05-07T02:37:27;14.30;99.90
35613;DHT22;22054;51.646;7.078;2023-05-07T02:40:51;14.30;99.90
35613;DHT22;22054;51.646;7.078;2023-05-07T02:44:15;14.30;99.90
35613;DHT22;22054;51.646;7.078;2023-05-07T02:47:40;14.40;99.90
35613;DHT22;22054;51.646;7.078;2023-05-07T02:51:04;14.20;99.90
35613;DHT22;22054;51.646;7.078;2023-05-07T02:54:28;14.20;99.90
35613;DHT22;22054;51.646;7.078;2023-05-07T02:57:53;14.20;99.90
35613;DHT22;22054;51.646;7.078;2023-05-07T03:01:17;14.30;99.90
35613;DHT22;22054;51.646;7.078;2023-05-07T03:04:41;14.20;99.90
35613;DHT22;22054;51.646;7.078;2023-05-07T03:08:05;14.20;99.90
35613;DHT22;22054;51.646;7.078;2023-05-07T03:11:30;14.10;99.90
35613;DHT22;22054;51.646;7.078;2023-05-07T03:14:54;14.10;99.90
35613;DHT22;22054;51.646;7.078;2023-05-07T03:18:18;14.10;99.90
35613;DHT22;22054;51.646;7.078;2023-05-07T03:21:42;14.10;99.90
35613;DHT22;22054;51.646;7.078;2023-05-07T03:25:08;14.10;99.90
35613;DHT22;22054;51.646;7.078;2023-05-07T03:28:32;14.10;99.90
35613;DHT22;22054;51.646;7.078;2023-05-07T03:31:56;14.00;99.90
35613;DHT22;22054;51.646;7.078;2023-05-07T03:35:20;14.00;99.90
35613;DHT22;22054;51.646;7.078;2023-05-07T03:38:45;14.20;99.90
35613;DHT22;22054;51.646;7.078;2023-05-07T03:42:09;14.10;99.90
35613;DHT22;22054;51.646;7.078;2023-05-07T03:45:34;14.30;99.90
35613;DHT22;22054;51.646;7.078;2023-05-07T03:48:58;14.10;99.90
35613;DHT22;22054;51.646;7.078;2023-05-07T03:52:23;14.10;99.90
35613;DHT22;22054;51.646;7.078;2023-05-07T03:55:47;14.10;99.90
35613;DHT22;22054;51.646;7.078;2023-05-07T03:59:12;14.00;99.90
35613;DHT22;22054;51.646;7.078;2023-05-07T04:02:37;14.10;99.90
35613;DHT22;22054;51.646;7.078;2023-05-07T04:06:01;13.90;99.90
35613;DHT22;22054;51.646;7.078;2023-05-07T04:09:26;13.90;99.90
35613;DHT22;22054;51.646;7.078;2023-05-07T04:12:50;13.90;99.90
35613;DHT22;22054;51.646;7.078;2023-05-07T04:16:14;13.80;99.90
35613;DHT22;22054;51.646;7.078;2023-05-07T04:19:40;13.80;99.90
35613;DHT22;22054;51.646;7.078;2023-05-07T04:23:04;13.90;99.90
35613;DHT22;22054;51.646;7.078;2023-05-07T04:26:29;13.90;99.90
35613;DHT22;22054;51.646;7.078;2023-05-07T04:29:53;14.00;99.90
35613;DHT22;22054;51.646;7.078;2023-05-07T04:33:17;14.00;99.90
35613;DHT22;22054;51.646;7.078;2023-05-07T04:36:42;14.10;99.90
35613;DHT22;22054;51.646;7.078;2023-05-07T04:40:06;14.20;99.90
35613;DHT22;22054;51.646;7.078;2023-05-07T04:43:31;14.10;99.90
35613;DHT22;22054;51.646;7.078;2023-05-07T04:46:56;14.20;99.90
35613;DHT22;22054;51.646;7.078;2023-05-07T04:50:21;14.50;99.90
35613;DHT22;22054;51.646;7.078;2023-05-07T04:53:45;14.40;99.90
35613;DHT22;22054;51.646;7.078;2023-05-07T04:57:09;14.30;99.90
35613;DHT22;22054;51.646;7.078;2023-05-07T05:00:34;14.60;99.90
35613;DHT22;22054;51.646;7.078;2023-05-07T05:03:58;14.50;99.90
35613;DHT22;22054;51.646;7.078;2023-05-07T05:07:22;14.50;99.90
35613;DHT22;22054;51.646;7.078;2023-05-07T05:10:46;14.60;99.90
35613;DHT22;22054;51.646;7.078;2023-05-07T05:14:11;14.60;99.90
35613;DHT22;22054;51.646;7.078;2023-05-07T05:17:36;14.60;99.90
35613;DHT22;22054;51.646;7.078;2023-05-07T05:21:00;14.70;99.90
35613;DHT22;22054;51.646;7.078;2023-05-07T05:24:26;14.60;99.90
35613;DHT22;22054;51.646;7.078;2023-05-07T05:27:51;14.60;99.90
35613;DHT22;22054;51.646;7.078;2023-05-07T05:31:16;14.50;99.90
35613;DHT22;22054;51.646;7.078;2023-05-07T05:34:40;14.50;99.90
35613;DHT22;22054;51.646;7.078;2023-05-07T05:38:05;14.60;99.90
35613;DHT22;22054;51.646;7.078;2023-05-07T05:41:29;14.70;99.90
35613;DHT22;22054;51.646;7.078;2023-05-07T05:44:53;14.70;99.90
35613;DHT22;22054;51.646;7.078;2023-05-07T05:48:17;14.90;99.90
35613;DHT22;22054;51.646;7.078;2023-05-07T05:51:42;15.10;99.90
35613;DHT22;22054;51.646;7.078;2023-05-07T05:55:07;15.30;99.90
35613;DHT22;22054;51.646;7.078;2023-05-07T05:58:32;15.50;99.90
35613;DHT22;22054;51.646;7.078;2023-05-07T06:01:56;15.80;99.90
35613;DHT22;22054;51.646;7.078;2023-05-07T06:05:20;15.80;99.90
35613;DHT22;22054;51.646;7.078;2023-05-07T06:08:45;15.80;99.90
35613;DHT22;22054;51.646;7.078;2023-05-07T06:12:09;16.00;99.90
35613;DHT22;22054;51.646;7.078;2023-05-07T06:15:34;16.10;99.90
35613;DHT22;22054;51.646;7.078;2023-05-07T06:18:58;16.30;99.90
35613;DHT22;22054;51.646;7.078;2023-05-07T06:22:22;16.40;99.90
35613;DHT22;22054;51.646;7.078;2023-05-07T06:25:50;16.50;99.90
35613;DHT22;22054;51.646;7.078;2023-05-07T06:29:14;16.70;99.90
35613;DHT22;22054;51.646;7.078;2023-05-07T06:32:40;16.70;99.90
35613;DHT22;22054;51.646;7.078;2023-05-07T06:36:05;16.80;99.90
35613;DHT22;22054;51.646;7.078;2023-05-07T06:39:30;16.80;99.90
35613;DHT22;22054;51.646;7.078;2023-05-07T06:42:55;17.10;99.90
35613;DHT22;22054;51.646;7.078;2023-05-07T06:46:19;17.20;99.90
35613;DHT22;22054;51.646;7.078;2023-05-07T06:49:43;17.30;99.90
35613;DHT22;22054;51.646;7.078;2023-05-07T06:53:07;17.20;99.90
35613;DHT22;22054;51.646;7.078;2023-05-07T06:56:32;17.30;99.90
35613;DHT22;22054;51.646;7.078;2023-05-07T06:59:56;17.40;99.90
35613;DHT22;22054;51.646;7.078;2023-05-07T07:03:21;17.50;99.90
35613;DHT22;22054;51.646;7.078;2023-05-07T07:06:47;17.80;99.90
35613;DHT22;22054;51.646;7.078;2023-05-07T07:10:21;17.80;99.90
35613;DHT22;22054;51.646;7.078;2023-05-07T07:13:46;18.00;99.90
35613;DHT22;22054;51.646;7.078;2023-05-07T07:17:10;18.10;99.90
35613;DHT22;22054;51.646;7.078;2023-05-07T07:20:37;18.20;99.90
35613;DHT22;22054;51.646;7.078;2023-05-07T07:24:01;18.40;99.90
35613;DHT22;22054;51.646;7.078;2023-05-07T07:27:26;18.50;99.90
35613;DHT22;22054;51.646;7.078;2023-05-07T07:30:50;18.50;99.90
35613;DHT22;22054;51.646;7.078;2023-05-07T07:34:15;18.50;99.90
35613;DHT22;22054;51.646;7.078;2023-05-07T07:37:39;18.70;99.90
35613;DHT22;22054;51.646;7.078;2023-05-07T07:41:03;18.70;99.90
35613;DHT22;22054;51.646;7.078;2023-05-07T07:44:28;18.90;99.90
35613;DHT22;22054;51.646;7.078;2023-05-07T07:47:52;19.00;99.90
35613;DHT22;22054;51.646;7.078;2023-05-07T07:51:16;19.00;99.90
35613;DHT22;22054;51.646;7.078;2023-05-07T07:54:41;19.20;99.90
35613;DHT22;22054;51.646;7.078;2023-05-07T07:58:05;19.40;99.90
35613;DHT22;22054;51.646;7.078;2023-05-07T08:01:30;19.70;39.80
35613;DHT22;22054;51.646;7.078;2023-05-07T08:04:55;19.90;1.00
35613;DHT22;22054;51.646;7.078;2023-05-07T08:08:19;20.00;8.40
35613;DHT22;22054;51.646;7.078;2023-05-07T08:11:45;20.30;1.00
35613;DHT22;22054;51.646;7.078;2023-05-07T08:15:09;20.00;1.00
35613;DHT22;22054;51.646;7.078;2023-05-07T08:18:34;19.60;1.00
35613;DHT22;22054;51.646;7.078;2023-05-07T08:21:58;19.50;1.00
35613;DHT22;22054;51.646;7.078;2023-05-07T08:25:22;19.40;3.30
35613;DHT22;22054;51.646;7.078;2023-05-07T08:28:47;19.50;24.40
35613;DHT22;22054;51.646;7.078;2023-05-07T08:32:12;19.70;1.00
35613;DHT22;22054;51.646;7.078;2023-05-07T08:35:37;20.20;1.00
35613;DHT22;22054;51.646;7.078;2023-05-07T08:39:01;20.20;1.00
35613;DHT22;22054;51.646;7.078;2023-05-07T08:42:27;20.50;1.00
35613;DHT22;22054;51.646;7.078;2023-05-07T08:45:54;20.80;1.00
35613;DHT22;22054;51.646;7.078;2023-05-07T08:49:20;21.00;1.00
35613;DHT22;22054;51.646;7.078;2023-05-07T08:52:45;21.20;1.00
35613;DHT22;22054;51.646;7.078;2023-05-07T08:56:11;21.30;1.00
35613;DHT22;22054;51.646;7.078;2023-05-07T08:59:36;21.20;1.00
35613;DHT22;22054;51.646;7.078;2023-05-07T09:03:01;21.50;1.00
35613;DHT22;22054;51.646;7.078;2023-05-07T09:06:25;22.00;1.00
35613;DHT22;22054;51.646;7.078;2023-05-07T09:09:50;22.20;1.00
35613;DHT22;22054;51.646;7.078;2023-05-07T09:13:14;22.20;1.00
35613;DHT22;22054;51.646;7.078;2023-05-07T09:16:38;22.20;1.00
35613;DHT22;22054;51.646;7.078;2023-05-07T09:20:04;22.60;1.00
35613;DHT22;22054;51.646;7.078;2023-05-07T09:23:29;22.40;1.00
35613;DHT22;22054;51.646;7.078;2023-05-07T09:26:57;22.60;1.00
35613;DHT22;22054;51.646;7.078;2023-05-07T09:30:22;23.20;1.00
35613;DHT22;22054;51.646;7.078;2023-05-07T09:33:48;23.40;99.90
35613;DHT22;22054;51.646;7.078;2023-05-07T09:37:13;23.40;1.00
35613;DHT22;22054;51.646;7.078;2023-05-07T09:40:38;23.40;1.00
35613;DHT22;22054;51.646;7.078;2023-05-07T09:44:09;23.50;58.50
35613;DHT22;22054;51.646;7.078;2023-05-07T09:47:38;23.80;1.00
35613;DHT22;22054;51.646;7.078;2023-05-07T09:51:18;23.80;1.00
35613;DHT22;22054;51.646;7.078;2023-05-07T09:54:47;23.80;1.00
35613;DHT22;22054;51.646;7.078;2023-05-07T09:58:12;24.10;66.30
35613;DHT22;22054;51.646;7.078;2023-05-07T10:01:41;24.30;99.90
35613;DHT22;22054;51.646;7.078;2023-05-07T10:05:12;24.50;1.00
35613;DHT22;22054;51.646;7.078;2023-05-07T10:08:37;24.30;99.90
35613;DHT22;22054;51.646;7.078;2023-05-07T10:12:05;24.10;1.00
35613;DHT22;22054;51.646;7.078;2023-05-07T10:15:35;24.30;99.90
35613;DHT22;22054;51.646;7.078;2023-05-07T10:19:07;24.30;99.90
35613;DHT22;22054;51.646;7.078;2023-05-07T10:22:43;24.80;1.00
35613;DHT22;22054;51.646;7.078;2023-05-07T10:26:12;24.60;1.00
35613;DHT22;22054;51.646;7.078;2023-05-07T10:33:44;27.00;1.00
35613;DHT22;22054;51.646;7.078;2023-05-07T10:37:11;28.20;1.00
35613;DHT22;22054;51.646;7.078;2023-05-07T10:40:36;29.40;1.00
35613;DHT22;22054;51.646;7.078;2023-05-07T10:44:00;30.00;1.00
35613;DHT22;22054;51.646;7.078;2023-05-07T10:48:15;30.30;1.00
35613;DHT22;22054;51.646;7.078;2023-05-07T10:51:41;31.00;1.00
35613;DHT22;22054;51.646;7.078;2023-05-07T10:58:42;33.40;99.90
35613;DHT22;22054;51.646;7.078;2023-05-07T11:02:07;33.70;99.90
35613;DHT22;22054;51.646;7.078;2023-05-07T11:05:32;34.00;99.90
35613;DHT22;22054;51.646;7.078;2023-05-07T11:08:59;33.60;99.90
35613;DHT22;22054;51.646;7.078;2023-05-07T11:16:22;34.20;99.90
35613;DHT22;22054;51.646;7.078;2023-05-07T11:19:54;35.50;99.90
35613;DHT22;22054;51.646;7.078;2023-05-07T11:27:04;36.00;99.90
35613;DHT22;22054;51.646;7.078;2023-05-07T11:30:37;35.40;99.90
35613;DHT22;22054;51.646;7.078;2023-05-07T11:34:01;35.40;99.90
35613;DHT22;22054;51.646;7.078;2023-05-07T11:37:27;33.90;99.90
35613;DHT22;22054;51.646;7.078;2023-05-07T11:40:58;32.10;99.90
35613;DHT22;22054;51.646;7.078;2023-05-07T11:44:23;31.00;99.90
35613;DHT22;22054;51.646;7.078;2023-05-07T11:47:54;30.30;99.90
35613;DHT22;22054;51.646;7.078;2023-05-07T11:51:20;30.40;99.90
35613;DHT22;22054;51.646;7.078;2023-05-07T11:54:50;30.90;99.90
35613;DHT22;22054;51.646;7.078;2023-05-07T11:58:22;31.70;99.90
35613;DHT22;22054;51.646;7.078;2023-05-07T12:01:46;31.80;99.90
35613;DHT22;22054;51.646;7.078;2023-05-07T12:05:11;32.20;99.90
35613;DHT22;22054;51.646;7.078;2023-05-07T12:08:40;31.70;99.90
35613;DHT22;22054;51.646;7.078;2023-05-07T12:12:06;31.30;99.90
35613;DHT22;22054;51.646;7.078;2023-05-07T12:15:38;30.60;99.90
35613;DHT22;22054;51.646;7.078;2023-05-07T12:19:05;31.20;99.90
35613;DHT22;22054;51.646;7.078;2023-05-07T12:22:33;33.50;99.90
35613;DHT22;22054;51.646;7.078;2023-05-07T12:25:57;35.00;99.90
35613;DHT22;22054;51.646;7.078;2023-05-07T12:29:23;34.50;99.90
35613;DHT22;22054;51.646;7.078;2023-05-07T12:32:47;33.70;99.90
35613;DHT22;22054;51.646;7.078;2023-05-07T12:36:16;32.70;99.90
35613;DHT22;22054;51.646;7.078;2023-05-07T12:40:03;32.10;99.90
35613;DHT22;22054;51.646;7.078;2023-05-07T12:43:28;31.40;99.90
35613;DHT22;22054;51.646;7.078;2023-05-07T12:46:58;31.00;99.90
35613;DHT22;22054;51.646;7.078;2023-05-07T12:50:23;30.20;99.90
35613;DHT22;22054;51.646;7.078;2023-05-07T12:53:47;29.90;99.90
35613;DHT22;22054;51.646;7.078;2023-05-07T12:57:19;29.10;99.90
35613;DHT22;22054;51.646;7.078;2023-05-07T13:01:05;28.60;1.00
35613;DHT22;22054;51.646;7.078;2023-05-07T13:04:31;28.20;1.00
35613;DHT22;22054;51.646;7.078;2023-05-07T13:07:58;27.90;1.00
35613;DHT22;22054;51.646;7.078;2023-05-07T13:11:22;27.40;1.00
35613;DHT22;22054;51.646;7.078;2023-05-07T13:14:46;26.80;99.90
35613;DHT22;22054;51.646;7.078;2023-05-07T13:18:11;26.40;99.90
35613;DHT22;22054;51.646;7.078;2023-05-07T13:21:36;26.40;1.00
35613;DHT22;22054;51.646;7.078;2023-05-07T13:25:00;26.10;1.00
35613;DHT22;22054;51.646;7.078;2023-05-07T13:28:24;25.80;99.90
35613;DHT22;22054;51.646;7.078;2023-05-07T13:31:54;25.70;1.00
35613;DHT22;22054;51.646;7.078;2023-05-07T13:35:20;25.30;99.90
35613;DHT22;22054;51.646;7.078;2023-05-07T13:38:50;25.00;1.00
35613;DHT22;22054;51.646;7.078;2023-05-07T13:42:14;24.90;1.00
35613;DHT22;22054;51.646;7.078;2023-05-07T13:45:38;24.50;1.00
35613;DHT22;22054;51.646;7.078;2023-05-07T13:49:02;24.10;1.00
35613;DHT22;22054;51.646;7.078;2023-05-07T13:52:27;23.70;1.00
35613;DHT22;22054;51.646;7.078;2023-05-07T13:55:51;23.40;99.90
35613;DHT22;22054;51.646;7.078;2023-05-07T13:59:15;23.00;91.70
35613;DHT22;22054;51.646;7.078;2023-05-07T14:02:41;22.70;1.00
35613;DHT22;22054;51.646;7.078;2023-05-07T14:06:05;22.40;1.00
35613;DHT22;22054;51.646;7.078;2023-05-07T14:09:30;22.30;1.00
35613;DHT22;22054;51.646;7.078;2023-05-07T14:12:54;21.80;1.00
35613;DHT22;22054;51.646;7.078;2023-05-07T14:16:19;21.70;99.90
35613;DHT22;22054;51.646;7.078;2023-05-07T14:19:43;21.50;99.90
35613;DHT22;22054;51.646;7.078;2023-05-07T14:23:14;21.30;1.00
35613;DHT22;22054;51.646;7.078;2023-05-07T14:26:39;20.80;1.00
35613;DHT22;22054;51.646;7.078;2023-05-07T14:30:03;20.30;8.60
35613;DHT22;22054;51.646;7.078;2023-05-07T14:33:28;19.80;99.90
35613;DHT22;22054;51.646;7.078;2023-05-07T14:36:52;19.40;99.90
35613;DHT22;22054;51.646;7.078;2023-05-07T14:40:16;19.20;99.90
35613;DHT22;22054;51.646;7.078;2023-05-07T14:43:41;19.10;99.90
35613;DHT22;22054;51.646;7.078;2023-05-07T14:47:07;19.10;99.90
35613;DHT22;22054;51.646;7.078;2023-05-07T14:50:34;19.10;99.90
35613;DHT22;22054;51.646;7.078;2023-05-07T14:54:00;19.10;99.90
35613;DHT22;22054;51.646;7.078;2023-05-07T14:57:24;19.10;99.90
35613;DHT22;22054;51.646;7.078;2023-05-07T15:00:48;18.80;99.90
35613;DHT22;22054;51.646;7.078;2023-05-07T15:04:13;18.90;99.90
35613;DHT22;22054;51.646;7.078;2023-05-07T15:07:37;19.00;99.90
35613;DHT22;22054;51.646;7.078;2023-05-07T15:11:01;19.00;99.90
35613;DHT22;22054;51.646;7.078;2023-05-07T15:14:27;19.00;99.90
35613;DHT22;22054;51.646;7.078;2023-05-07T15:17:51;19.00;99.90
35613;DHT22;22054;51.646;7.078;2023-05-07T15:21:16;19.40;99.90
35613;DHT22;22054;51.646;7.078;2023-05-07T15:24:40;19.30;99.90
35613;DHT22;22054;51.646;7.078;2023-05-07T15:28:05;19.80;99.90
35613;DHT22;22054;51.646;7.078;2023-05-07T15:31:33;19.90;99.90
35613;DHT22;22054;51.646;7.078;2023-05-07T15:34:57;20.30;99.90
35613;DHT22;22054;51.646;7.078;2023-05-07T15:38:27;20.60;94.80
35613;DHT22;22054;51.646;7.078;2023-05-07T15:41:52;20.70;1.00
35613;DHT22;22054;51.646;7.078;2023-05-07T15:45:27;21.00;1.70
35613;DHT22;22054;51.646;7.078;2023-05-07T15:49:25;21.30;1.00
35613;DHT22;22054;51.646;7.078;2023-05-07T15:52:56;21.60;1.00
35613;DHT22;22054;51.646;7.078;2023-05-07T15:56:25;21.90;1.00
35613;DHT22;22054;51.646;7.078;2023-05-07T15:59:50;22.00;1.00
35613;DHT22;22054;51.646;7.078;2023-05-07T16:03:35;22.10;1.00
35613;DHT22;22054;51.646;7.078;2023-05-07T16:07:23;22.10;1.00
35613;DHT22;22054;51.646;7.078;2023-05-07T16:10:51;22.20;1.00
35613;DHT22;22054;51.646;7.078;2023-05-07T16:14:22;22.20;1.00
35613;DHT22;22054;51.646;7.078;2023-05-07T16:17:52;22.10;1.00
35613;DHT22;22054;51.646;7.078;2023-05-07T16:21:17;22.10;1.00
35613;DHT22;22054;51.646;7.078;2023-05-07T16:24:44;22.00;1.00
35613;DHT22;22054;51.646;7.078;2023-05-07T16:28:16;22.00;1.00
35613;DHT22;22054;51.646;7.078;2023-05-07T16:31:41;21.90;1.00
35613;DHT22;22054;51.646;7.078;2023-05-07T16:35:06;21.80;1.00
35613;DHT22;22054;51.646;7.078;2023-05-07T16:38:31;21.60;1.00
35613;DHT22;22054;51.646;7.078;2023-05-07T16:41:56;21.40;1.00
35613;DHT22;22054;51.646;7.078;2023-05-07T16:45:21;21.20;1.00
35613;DHT22;22054;51.646;7.078;2023-05-07T16:48:49;21.00;1.00
35613;DHT22;22054;51.646;7.078;2023-05-07T16:52:15;20.90;1.00
35613;DHT22;22054;51.646;7.078;2023-05-07T16:55:46;20.80;1.00
35613;DHT22;22054;51.646;7.078;2023-05-07T16:59:16;20.70;1.00
35613;DHT22;22054;51.646;7.078;2023-05-07T17:02:44;20.70;1.00
35613;DHT22;22054;51.646;7.078;2023-05-07T17:06:16;20.70;1.00
35613;DHT22;22054;51.646;7.078;2023-05-07T17:09:47;20.50;1.00
35613;DHT22;22054;51.646;7.078;2023-05-07T17:13:12;20.40;1.00
35613;DHT22;22054;51.646;7.078;2023-05-07T17:17:03;20.40;1.00
35613;DHT22;22054;51.646;7.078;2023-05-07T17:20:55;20.20;1.00
35613;DHT22;22054;51.646;7.078;2023-05-07T17:24:22;19.90;24.50
35613;DHT22;22054;51.646;7.078;2023-05-07T17:27:50;19.80;34.90
35613;DHT22;22054;51.646;7.078;2023-05-07T17:31:19;19.70;18.40
35613;DHT22;22054;51.646;7.078;2023-05-07T17:34:44;19.60;16.00
35613;DHT22;22054;51.646;7.078;2023-05-07T17:38:09;19.60;1.00
35613;DHT22;22054;51.646;7.078;2023-05-07T17:41:39;19.40;72.90
35613;DHT22;22054;51.646;7.078;2023-05-07T17:45:08;19.40;87.40
35613;DHT22;22054;51.646;7.078;2023-05-07T17:48:35;19.30;66.10
35613;DHT22;22054;51.646;7.078;2023-05-07T17:52:03;19.20;99.10
35613;DHT22;22054;51.646;7.078;2023-05-07T17:55:30;19.10;99.90
35613;DHT22;22054;51.646;7.078;2023-05-07T17:58:55;19.10;99.90
35613;DHT22;22054;51.646;7.078;2023-05-07T18:02:31;19.00;99.90
35613;DHT22;22054;51.646;7.078;2023-05-07T18:05:56;19.10;99.90
35613;DHT22;22054;51.646;7.078;2023-05-07T18:09:28;19.00;99.90
35613;DHT22;22054;51.646;7.078;2023-05-07T18:13:02;18.90;99.90
35613;DHT22;22054;51.646;7.078;2023-05-07T18:16:49;18.90;99.90
35613;DHT22;22054;51.646;7.078;2023-05-07T18:20:16;18.90;99.90
35613;DHT22;22054;51.646;7.078;2023-05-07T18:23:47;18.70;99.90
35613;DHT22;22054;51.646;7.078;2023-05-07T18:27:16;18.50;99.90
35613;DHT22;22054;51.646;7.078;2023-05-07T18:30:54;18.40;99.90
35613;DHT22;22054;51.646;7.078;2023-05-07T18:34:47;18.20;99.90
35613;DHT22;22054;51.646;7.078;2023-05-07T18:38:15;18.10;99.90
35613;DHT22;22054;51.646;7.078;2023-05-07T18:41:52;17.90;99.90
35613;DHT22;22054;51.646;7.078;2023-05-07T18:45:32;17.80;99.90
35613;DHT22;22054;51.646;7.078;2023-05-07T18:49:01;17.70;99.90
35613;DHT22;22054;51.646;7.078;2023-05-07T18:52:38;17.70;99.90
35613;DHT22;22054;51.646;7.078;2023-05-07T18:56:06;17.60;99.90
35613;DHT22;22054;51.646;7.078;2023-05-07T18:59:47;17.40;99.90
35613;DHT22;22054;51.646;7.078;2023-05-07T19:03:21;17.40;99.90
35613;DHT22;22054;51.646;7.078;2023-05-07T19:07:00;17.30;99.90
35613;DHT22;22054;51.646;7.078;2023-05-07T19:10:45;17.30;99.90
35613;DHT22;22054;51.646;7.078;2023-05-07T19:14:27;17.30;99.90
35613;DHT22;22054;51.646;7.078;2023-05-07T19:18:04;17.20;99.90
35613;DHT22;22054;51.646;7.078;2023-05-07T19:21:38;17.20;99.90
35613;DHT22;22054;51.646;7.078;2023-05-07T19:25:05;17.20;99.90
35613;DHT22;22054;51.646;7.078;2023-05-07T19:28:43;17.10;99.90
35613;DHT22;22054;51.646;7.078;2023-05-07T19:32:20;17.20;99.90
35613;DHT22;22054;51.646;7.078;2023-05-07T19:35:49;17.20;99.90
35613;DHT22;22054;51.646;7.078;2023-05-07T19:39:16;17.10;99.90
35613;DHT22;22054;51.646;7.078;2023-05-07T19:42:43;17.20;99.90
35613;DHT22;22054;51.646;7.078;2023-05-07T19:46:07;17.20;99.90
35613;DHT22;22054;51.646;7.078;2023-05-07T19:49:31;17.30;99.90
35613;DHT22;22054;51.646;7.078;2023-05-07T19:52:56;17.30;99.90
35613;DHT22;22054;51.646;7.078;2023-05-07T19:56:20;17.10;99.90
35613;DHT22;22054;51.646;7.078;2023-05-07T19:59:45;17.10;99.90
35613;DHT22;22054;51.646;7.078;2023-05-07T20:03:10;17.20;99.90
35613;DHT22;22054;51.646;7.078;2023-05-07T20:06:34;17.10;99.90
35613;DHT22;22054;51.646;7.078;2023-05-07T20:09:58;17.20;99.90
35613;DHT22;22054;51.646;7.078;2023-05-07T20:13:23;17.20;99.90
35613;DHT22;22054;51.646;7.078;2023-05-07T20:16:47;17.20;99.90
35613;DHT22;22054;51.646;7.078;2023-05-07T20:20:11;17.20;99.90
35613;DHT22;22054;51.646;7.078;2023-05-07T20:23:36;17.20;99.90
35613;DHT22;22054;51.646;7.078;2023-05-07T20:27:06;17.20;99.90
35613;DHT22;22054;51.646;7.078;2023-05-07T20:30:30;17.20;99.90
35613;DHT22;22054;51.646;7.078;2023-05-07T20:33:57;17.40;99.90
35613;DHT22;22054;51.646;7.078;2023-05-07T20:37:28;17.10;99.90
35613;DHT22;22054;51.646;7.078;2023-05-07T20:40:55;17.00;99.90
35613;DHT22;22054;51.646;7.078;2023-05-07T20:44:20;17.10;99.90
35613;DHT22;22054;51.646;7.078;2023-05-07T20:47:44;17.10;99.90
35613;DHT22;22054;51.646;7.078;2023-05-07T20:51:08;17.10;99.90
35613;DHT22;22054;51.646;7.078;2023-05-07T20:54:32;17.10;76.70
35613;DHT22;22054;51.646;7.078;2023-05-07T20:57:56;17.20;84.70
35613;DHT22;22054;51.646;7.078;2023-05-07T21:01:21;17.00;42.70
35613;DHT22;22054;51.646;7.078;2023-05-07T21:04:45;17.00;58.80
35613;DHT22;22054;51.646;7.078;2023-05-07T21:08:20;16.90;45.30
35613;DHT22;22054;51.646;7.078;2023-05-07T21:11:44;17.00;71.20
35613;DHT22;22054;51.646;7.078;2023-05-07T21:15:09;16.90;58.10
35613;DHT22;22054;51.646;7.078;2023-05-07T21:18:35;16.50;56.90
35613;DHT22;22054;51.646;7.078;2023-05-07T21:21:59;16.70;99.90
35613;DHT22;22054;51.646;7.078;2023-05-07T21:25:23;16.70;88.70
35613;DHT22;22054;51.646;7.078;2023-05-07T21:28:48;16.90;87.60
35613;DHT22;22054;51.646;7.078;2023-05-07T21:32:12;16.70;99.90
35613;DHT22;22054;51.646;7.078;2023-05-07T21:35:36;16.60;99.90
35613;DHT22;22054;51.646;7.078;2023-05-07T21:39:01;16.40;99.90
35613;DHT22;22054;51.646;7.078;2023-05-07T21:42:26;16.50;99.90
35613;DHT22;22054;51.646;7.078;2023-05-07T21:45:50;16.40;99.90
35613;DHT22;22054;51.646;7.078;2023-05-07T21:49:14;16.50;99.90
35613;DHT22;22054;51.646;7.078;2023-05-07T21:52:38;16.40;99.90
35613;DHT22;22054;51.646;7.078;2023-05-07T21:56:03;16.30;99.90
35613;DHT22;22054;51.646;7.078;2023-05-07T21:59:27;16.30;99.90
35613;DHT22;22054;51.646;7.078;2023-05-07T22:02:51;16.30;99.90
35613;DHT22;22054;51.646;7.078;2023-05-07T22:06:16;16.30;99.90
35613;DHT22;22054;51.646;7.078;2023-05-07T22:09:40;16.10;99.90